createdAt,value
2022-11-26T00:01:18.424Z,1.35
2022-11-26T00:03:47.193Z,1.00
2022-11-26T00:06:23.405Z,1.00
2022-11-26T00:08:51.812Z,1.10
2022-11-26T00:11:20.080Z,1.10
2022-11-26T00:13:48.429Z,1.20
2022-11-26T00:16:18.097Z,0.88
2022-11-26T00:18:46.427Z,0.85
2022-11-26T00:21:19.517Z,1.10
2022-11-26T00:23:47.783Z,1.17
2022-11-26T00:26:17.509Z,1.23
2022-11-26T00:28:52.754Z,0.98
2022-11-26T00:31:33.123Z,1.23
2022-11-26T00:34:01.422Z,1.50
2022-11-26T00:36:31.281Z,0.90
2022-11-26T00:39:02.488Z,1.10
2022-11-26T00:41:34.864Z,0.88
2022-11-26T00:44:05.749Z,1.58
2022-11-26T00:46:35.441Z,0.88
2022-11-26T00:49:03.777Z,1.00
2022-11-26T00:51:32.094Z,0.95
2022-11-26T00:54:02.350Z,0.95
2022-11-26T00:56:35.085Z,0.95
2022-11-26T00:59:06.027Z,1.10
2022-11-26T01:01:35.789Z,1.02
2022-11-26T01:04:06.534Z,1.10
2022-11-26T01:06:35.624Z,1.05
2022-11-26T01:09:05.028Z,1.20
2022-11-26T01:11:33.306Z,1.10
2022-11-26T01:14:01.784Z,0.80
2022-11-26T01:16:31.102Z,1.10
2022-11-26T01:19:02.248Z,1.00
2022-11-26T01:21:31.612Z,0.77
2022-11-26T01:23:59.864Z,1.08
2022-11-26T01:26:32.559Z,1.00
2022-11-26T01:29:00.858Z,1.05
2022-11-26T01:31:31.514Z,0.90
2022-11-26T01:34:01.316Z,1.05
2022-11-26T01:36:30.534Z,0.80
2022-11-26T01:38:59.700Z,1.00
2022-11-26T01:41:35.841Z,1.05
2022-11-26T01:44:04.156Z,0.88
2022-11-26T01:46:40.797Z,1.10
2022-11-26T01:49:23.263Z,1.30
2022-11-26T01:51:54.180Z,1.08
2022-11-26T01:54:22.436Z,0.93
2022-11-26T01:56:54.547Z,0.90
2022-11-26T01:59:29.117Z,1.02
2022-11-26T02:01:59.652Z,0.98
2022-11-26T02:04:30.463Z,0.95
2022-11-26T02:06:58.940Z,0.90
2022-11-26T02:09:27.657Z,1.00
2022-11-26T02:11:56.078Z,0.80
2022-11-26T02:14:25.382Z,0.93
2022-11-26T02:17:12.590Z,1.10
2022-11-26T02:20:12.576Z,1.10
2022-11-26T02:23:13.501Z,1.58
2022-11-26T02:25:54.280Z,0.90
2022-11-26T02:28:42.663Z,0.80
2022-11-26T02:31:13.332Z,1.13
2022-11-26T02:33:45.190Z,0.82
2022-11-26T02:36:16.109Z,0.73
2022-11-26T02:38:44.446Z,1.00
2022-11-26T02:41:12.765Z,0.85
2022-11-26T02:43:41.089Z,0.90
2022-11-26T02:46:10.501Z,0.80
2022-11-26T02:48:42.544Z,1.08
2022-11-26T02:51:12.590Z,1.40
2022-11-26T02:53:40.934Z,0.95
2022-11-26T02:56:10.525Z,0.85
2022-11-26T02:58:38.882Z,1.00
2022-11-26T03:01:10.396Z,0.90
2022-11-26T03:03:41.626Z,0.70
2022-11-26T03:06:14.464Z,1.00
2022-11-26T03:08:43.908Z,1.10
2022-11-26T03:11:12.238Z,0.85
2022-11-26T03:13:40.572Z,1.13
2022-11-26T03:16:09.118Z,0.82
2022-11-26T03:18:37.420Z,0.95
2022-11-26T03:21:07.375Z,1.20
2022-11-26T03:23:35.708Z,1.10
2022-11-26T03:26:03.967Z,0.80
2022-11-26T03:28:32.201Z,0.88
2022-11-26T03:31:03.417Z,0.82
2022-11-26T03:35:59.837Z,0.98
2022-11-26T03:38:29.518Z,1.17
2022-11-26T03:40:58.326Z,1.08
2022-11-26T03:43:26.645Z,0.82
2022-11-26T03:45:54.998Z,1.10
2022-11-26T03:48:23.334Z,0.77
2022-11-26T03:50:51.644Z,1.05
2022-11-26T03:53:19.943Z,0.70
2022-11-26T03:55:51.120Z,1.20
2022-11-26T03:58:19.445Z,0.75
2022-11-26T04:00:47.745Z,1.25
2022-11-26T04:03:17.615Z,1.10
2022-11-26T04:05:45.920Z,0.73
2022-11-26T04:08:14.225Z,0.90
2022-11-26T04:10:42.552Z,1.10
2022-11-26T04:13:12.215Z,0.80
2022-11-26T04:15:40.518Z,0.80
2022-11-26T04:18:08.832Z,0.85
2022-11-26T04:20:37.165Z,0.80
2022-11-26T04:23:05.590Z,0.98
2022-11-26T04:25:33.901Z,1.40
2022-11-26T04:28:05.012Z,0.90
2022-11-26T04:30:34.929Z,0.93
2022-11-26T04:33:03.179Z,0.90
2022-11-26T04:35:31.448Z,1.00
2022-11-26T04:37:59.728Z,0.73
2022-11-26T04:40:28.060Z,1.00
2022-11-26T04:42:56.404Z,1.15
2022-11-26T04:45:24.852Z,0.93
2022-11-26T04:47:54.528Z,0.80
2022-11-26T04:50:22.831Z,1.00
2022-11-26T04:52:51.167Z,0.88
2022-11-26T04:55:19.615Z,1.10
2022-11-26T04:57:48.606Z,1.10
2022-11-26T05:00:17.573Z,1.10
2022-11-26T05:02:45.967Z,0.80
2022-11-26T05:05:15.877Z,1.17
2022-11-26T05:07:44.216Z,1.20
2022-11-26T05:10:13.524Z,0.95
2022-11-26T05:12:42.947Z,1.30
2022-11-26T05:15:12.040Z,1.02
2022-11-26T05:17:40.306Z,0.90
2022-11-26T05:20:09.825Z,1.60
2022-11-26T05:22:41.808Z,1.10
2022-11-26T05:25:10.808Z,1.25
2022-11-26T05:27:39.177Z,1.05
2022-11-26T05:30:08.709Z,0.98
2022-11-26T05:32:37.003Z,1.10
2022-11-26T05:35:05.860Z,1.55
2022-11-26T05:37:34.265Z,1.10
2022-11-26T05:40:07.757Z,1.02
2022-11-26T05:42:36.089Z,0.90
2022-11-26T05:45:04.777Z,1.00
2022-11-26T05:47:33.092Z,1.20
2022-11-26T05:50:01.406Z,1.20
2022-11-26T05:52:29.696Z,0.80
2022-11-26T05:54:57.964Z,1.42
2022-11-26T05:57:27.653Z,1.00
2022-11-26T05:59:55.929Z,1.02
2022-11-26T06:02:24.347Z,1.08
2022-11-26T06:04:52.758Z,1.58
2022-11-26T06:07:21.151Z,1.27
2022-11-26T06:09:49.492Z,1.13
2022-11-26T06:12:17.781Z,1.02
2022-11-26T06:14:47.836Z,1.48
2022-11-26T06:17:16.328Z,1.13
2022-11-26T06:19:44.672Z,1.25
2022-11-26T06:22:13.026Z,1.17
2022-11-26T06:24:41.317Z,1.40
2022-11-26T06:27:09.613Z,1.30
2022-11-26T06:29:40.072Z,1.75
2022-11-26T06:32:09.741Z,1.30
2022-11-26T06:34:38.249Z,1.08
2022-11-26T06:37:06.926Z,1.50
2022-11-26T06:39:35.213Z,1.30
2022-11-26T06:42:03.501Z,1.17
2022-11-26T06:44:33.575Z,1.30
2022-11-26T06:47:01.887Z,1.90
2022-11-26T06:49:31.590Z,1.48
2022-11-26T06:52:00.023Z,1.50
2022-11-26T06:54:28.364Z,1.00
2022-11-26T06:56:56.666Z,1.48
2022-11-26T06:59:24.991Z,1.33
2022-11-26T07:01:53.381Z,1.60
2022-11-26T07:04:24.861Z,1.10
2022-11-26T07:06:57.752Z,1.75
2022-11-26T07:09:29.205Z,1.33
2022-11-26T07:11:58.768Z,1.27
2022-11-26T07:14:28.527Z,1.65
2022-11-26T07:17:02.457Z,1.90
2022-11-26T07:19:30.870Z,1.10
2022-11-26T07:22:00.573Z,1.30
2022-11-26T07:24:29.032Z,1.58
2022-11-26T07:26:57.357Z,1.52
2022-11-26T07:29:25.640Z,1.55
2022-11-26T07:31:54.002Z,1.52
2022-11-26T07:34:22.332Z,1.60
2022-11-26T07:36:55.253Z,1.55
2022-11-26T07:39:27.511Z,1.20
2022-11-26T07:41:55.819Z,1.42
2022-11-26T07:44:24.135Z,1.30
2022-11-26T07:46:52.432Z,1.08
2022-11-26T07:49:20.743Z,1.48
2022-11-26T07:51:49.073Z,1.38
2022-11-26T07:54:17.336Z,1.27
2022-11-26T07:56:47.108Z,1.58
2022-11-26T07:59:15.364Z,1.40
2022-11-26T08:01:46.587Z,1.70
2022-11-26T08:04:14.912Z,1.25
2022-11-26T08:06:43.228Z,1.60
2022-11-26T08:09:11.718Z,1.70
2022-11-26T08:11:41.979Z,1.58
2022-11-26T08:14:12.569Z,1.70
2022-11-26T08:16:41.006Z,1.50
2022-11-26T08:19:13.679Z,1.33
2022-11-26T08:21:44.870Z,1.55
2022-11-26T08:24:14.647Z,1.73
2022-11-26T08:26:44.530Z,1.50
2022-11-26T08:29:14.480Z,1.20
2022-11-26T08:31:48.305Z,1.70
2022-11-26T08:34:16.731Z,1.30
2022-11-26T08:36:47.494Z,1.50
2022-11-26T08:39:17.225Z,1.55
2022-11-26T08:41:50.593Z,1.40
2022-11-26T08:44:21.692Z,1.27
2022-11-26T08:46:50.031Z,1.23
2022-11-26T08:49:18.348Z,1.23
2022-11-26T08:51:46.694Z,1.38
2022-11-26T08:54:15.008Z,1.58
2022-11-26T08:56:43.352Z,1.30
2022-11-26T08:59:11.659Z,1.00
2022-11-26T09:01:41.395Z,1.30
2022-11-26T09:04:12.833Z,1.10
2022-11-26T09:06:41.578Z,1.30
2022-11-26T09:09:17.496Z,1.13
2022-11-26T09:11:47.956Z,1.93
2022-11-26T09:14:18.200Z,2.38
2022-11-26T09:16:47.917Z,2.72
2022-11-26T09:19:16.547Z,3.70
2022-11-26T09:21:44.947Z,4.68
2022-11-26T09:24:13.335Z,4.47
2022-11-26T09:26:41.737Z,4.00
2022-11-26T09:29:12.334Z,4.65
2022-11-26T09:32:00.634Z,5.13
2022-11-26T09:34:30.267Z,3.92
2022-11-26T09:36:58.565Z,4.30
2022-11-26T09:39:27.440Z,3.78
2022-11-26T09:41:57.840Z,4.28
2022-11-26T09:44:30.225Z,4.00
2022-11-26T09:47:12.026Z,4.03
2022-11-26T09:49:55.787Z,3.75
2022-11-26T09:52:25.433Z,4.90
2022-11-26T09:54:56.128Z,5.75
2022-11-26T09:57:27.525Z,5.43
2022-11-26T09:59:56.056Z,6.00
2022-11-26T10:02:25.785Z,8.27
2022-11-26T10:04:55.532Z,12.95
2022-11-26T10:07:37.145Z,11.95
2022-11-26T10:10:09.025Z,11.50
2022-11-26T10:13:10.736Z,10.77
2022-11-26T10:15:38.053Z,10.05
2022-11-26T10:18:10.670Z,9.77
2022-11-26T10:20:48.568Z,9.30
2022-11-26T10:23:20.172Z,8.73
2022-11-26T10:25:49.781Z,8.70
2022-11-26T10:28:22.124Z,7.80
2022-11-26T10:30:53.956Z,7.88
2022-11-26T10:33:22.325Z,6.95
2022-11-26T10:35:52.004Z,6.88
2022-11-26T10:38:20.341Z,5.88
2022-11-26T10:40:50.109Z,6.63
2022-11-26T10:43:19.820Z,5.95
2022-11-26T10:45:49.732Z,6.32
2022-11-26T10:48:22.852Z,5.45
2022-11-26T10:51:02.798Z,4.93
2022-11-26T10:53:32.212Z,5.95
2022-11-26T10:56:01.231Z,4.55
2022-11-26T10:58:30.769Z,5.05
2022-11-26T11:01:00.677Z,5.38
2022-11-26T11:04:05.681Z,4.82
2022-11-26T11:06:28.866Z,4.47
2022-11-26T11:08:57.227Z,4.85
2022-11-26T11:11:26.352Z,4.70
2022-11-26T11:13:54.696Z,4.13
2022-11-26T11:16:27.248Z,3.80
2022-11-26T11:18:56.705Z,4.03
2022-11-26T11:21:30.387Z,4.05
2022-11-26T11:24:09.252Z,3.58
2022-11-26T11:26:43.364Z,4.00
2022-11-26T11:29:25.557Z,3.67
2022-11-26T11:31:54.064Z,3.70
2022-11-26T11:34:23.805Z,3.97
2022-11-26T11:37:03.136Z,3.38
2022-11-26T11:39:34.678Z,3.28
2022-11-26T11:42:04.300Z,3.33
2022-11-26T11:44:38.197Z,3.35
2022-11-26T11:47:13.528Z,3.33
2022-11-26T11:49:50.180Z,2.90
2022-11-26T11:52:25.464Z,2.83
2022-11-26T11:54:59.802Z,2.85
2022-11-26T11:57:37.852Z,2.50
2022-11-26T12:00:13.615Z,3.15
2022-11-26T12:03:09.362Z,2.72
2022-11-26T12:05:50.559Z,2.67
2022-11-26T12:08:25.507Z,2.63
2022-11-26T12:10:58.212Z,2.55
2022-11-26T12:13:26.533Z,2.50
2022-11-26T12:15:57.272Z,2.72
2022-11-26T12:18:27.267Z,2.45
2022-11-26T12:20:56.725Z,2.10
2022-11-26T12:23:36.597Z,2.88
2022-11-26T12:26:07.337Z,2.58
2022-11-26T12:28:38.271Z,2.40
2022-11-26T12:31:08.937Z,2.80
2022-11-26T12:33:41.352Z,2.55
2022-11-26T12:36:16.406Z,2.92
2022-11-26T12:38:48.732Z,1.77
2022-11-26T12:41:18.034Z,2.45
2022-11-26T12:43:48.604Z,2.35
2022-11-26T12:46:19.621Z,2.33
2022-11-26T12:48:52.456Z,2.30
2022-11-26T12:51:25.517Z,2.05
2022-11-26T12:53:58.663Z,1.92
2022-11-26T12:56:30.915Z,2.10
2022-11-26T12:59:02.487Z,2.03
2022-11-26T13:01:33.853Z,1.92
2022-11-26T13:04:36.127Z,2.25
2022-11-26T13:06:58.699Z,2.00
2022-11-26T13:09:35.231Z,2.05
2022-11-26T13:12:07.962Z,1.92
2022-11-26T13:14:39.527Z,2.08
2022-11-26T13:17:12.094Z,1.88
2022-11-26T13:19:42.106Z,2.25
2022-11-26T13:22:35.308Z,1.60
2022-11-26T13:25:16.916Z,1.70
2022-11-26T13:27:52.627Z,1.40
2022-11-26T13:30:22.215Z,1.85
2022-11-26T13:33:24.588Z,1.30
2022-11-26T13:36:08.378Z,1.42
2022-11-26T13:38:43.129Z,1.77
2022-11-26T13:41:53.202Z,1.70
2022-11-26T13:44:40.060Z,1.73
2022-11-26T13:47:10.039Z,1.65
2022-11-26T13:49:40.386Z,1.42
2022-11-26T13:52:11.916Z,1.80
2022-11-26T13:54:42.770Z,1.50
2022-11-26T13:57:13.187Z,1.95
2022-11-26T13:59:49.182Z,1.40
2022-11-26T14:02:44.193Z,1.65
2022-11-26T14:05:15.513Z,1.40
2022-11-26T14:07:44.142Z,1.60
2022-11-26T14:10:40.057Z,1.50
2022-11-26T14:13:15.969Z,1.55
2022-11-26T14:16:05.549Z,1.60
2022-11-26T14:19:01.798Z,1.73
2022-11-26T14:21:30.552Z,1.70
2022-11-26T14:24:03.195Z,1.65
2022-11-26T14:26:34.536Z,1.42
2022-11-26T14:29:11.975Z,1.58
2022-11-26T14:31:43.812Z,1.60
2022-11-26T14:34:14.704Z,1.50
2022-11-26T14:36:53.128Z,1.30
2022-11-26T14:39:21.619Z,1.80
2022-11-26T14:42:00.503Z,1.90
2022-11-26T14:44:33.827Z,1.80
2022-11-26T14:47:10.904Z,1.55
2022-11-26T14:52:18.012Z,1.48
2022-11-26T14:54:47.226Z,1.17
2022-11-26T14:57:18.000Z,1.45
2022-11-26T14:59:59.325Z,1.23
2022-11-26T15:02:29.895Z,1.25
2022-11-26T15:04:59.637Z,1.25
2022-11-26T15:07:31.395Z,1.58
2022-11-26T15:10:04.244Z,1.30
2022-11-26T15:12:32.603Z,1.50
2022-11-26T15:15:00.856Z,1.60
2022-11-26T15:17:30.889Z,1.50
2022-11-26T15:19:59.595Z,1.33
2022-11-26T15:22:34.006Z,1.10
2022-11-26T15:25:02.300Z,1.17
2022-11-26T15:27:32.191Z,1.20
2022-11-26T15:30:00.513Z,1.13
2022-11-26T15:32:30.847Z,1.45
2022-11-26T15:35:02.948Z,1.30
2022-11-26T15:37:34.400Z,1.60
2022-11-26T15:40:11.036Z,1.33
2022-11-26T15:42:40.225Z,1.48
2022-11-26T15:45:14.719Z,1.58
2022-11-26T15:47:50.238Z,1.23
2022-11-26T15:50:25.678Z,1.10
2022-11-26T15:52:56.639Z,1.00
2022-11-26T15:55:28.563Z,1.10
2022-11-26T15:58:01.598Z,1.50
2022-11-26T16:00:32.342Z,1.20
2022-11-26T16:03:01.998Z,1.27
2022-11-26T16:05:34.201Z,1.20
2022-11-26T16:08:03.780Z,1.10
2022-11-26T16:10:35.534Z,1.27
2022-11-26T16:13:08.912Z,1.17
2022-11-26T16:15:37.207Z,1.20
2022-11-26T16:18:15.154Z,1.20
2022-11-26T16:20:45.925Z,0.88
2022-11-26T16:23:22.303Z,1.30
2022-11-26T16:26:10.849Z,0.80
2022-11-26T16:28:39.278Z,1.00
2022-11-26T16:31:09.972Z,1.38
2022-11-26T16:33:39.677Z,1.17
2022-11-26T16:36:22.334Z,1.17
2022-11-26T16:38:50.846Z,1.05
2022-11-26T16:41:19.869Z,1.08
2022-11-26T16:43:48.345Z,0.98
2022-11-26T16:46:17.452Z,0.68
2022-11-26T16:48:47.535Z,1.33
2022-11-26T16:51:15.913Z,1.40
2022-11-26T16:53:44.255Z,1.13
2022-11-26T16:56:24.388Z,1.00
2022-11-26T16:58:52.844Z,1.88
2022-11-26T17:01:21.309Z,3.65
2022-11-26T17:03:51.182Z,11.73
2022-11-26T17:06:24.803Z,39.90
2022-11-26T17:08:53.357Z,50.08
2022-11-26T17:11:21.640Z,62.25
2022-11-26T17:13:50.005Z,64.32
2022-11-26T17:16:19.602Z,68.70
2022-11-26T17:18:48.032Z,70.35
2022-11-26T17:21:17.643Z,74.35
2022-11-26T17:23:45.953Z,72.63
2022-11-26T17:26:19.382Z,71.93
2022-11-26T17:28:47.729Z,72.82
2022-11-26T17:31:16.266Z,71.35
2022-11-26T17:33:44.746Z,67.95
2022-11-26T17:36:18.293Z,65.22
2022-11-26T17:38:46.747Z,63.78
2022-11-26T17:41:15.532Z,62.53
2022-11-26T17:43:43.860Z,61.65
2022-11-26T17:46:16.645Z,60.75
2022-11-26T17:48:45.047Z,57.47
2022-11-26T17:51:14.292Z,55.15
2022-11-26T17:53:44.145Z,56.97
2022-11-26T17:56:17.095Z,55.10
2022-11-26T17:58:45.390Z,54.35
2022-11-26T18:01:14.792Z,51.15
2022-11-26T18:03:43.225Z,51.63
2022-11-26T18:06:17.421Z,49.63
2022-11-26T18:08:50.560Z,46.92
2022-11-26T18:11:18.855Z,48.15
2022-11-26T18:13:47.197Z,44.78
2022-11-26T18:16:15.517Z,44.30
2022-11-26T18:18:43.839Z,43.40
2022-11-26T18:21:12.353Z,43.15
2022-11-26T18:23:42.659Z,40.63
2022-11-26T18:26:19.945Z,40.85
2022-11-26T18:28:48.294Z,38.72
2022-11-26T18:31:16.767Z,37.88
2022-11-26T18:33:45.211Z,37.65
2022-11-26T18:36:13.812Z,36.08
2022-11-26T18:38:42.128Z,35.28
2022-11-26T18:41:10.456Z,33.83
2022-11-26T18:43:40.216Z,33.28
2022-11-26T18:46:11.173Z,30.60
2022-11-26T18:48:40.096Z,31.42
2022-11-26T18:51:10.201Z,30.30
2022-11-26T18:53:38.671Z,29.17
2022-11-26T18:56:08.462Z,28.52
2022-11-26T18:58:36.786Z,28.33
2022-11-26T19:01:12.932Z,27.33
2022-11-26T19:03:44.135Z,28.17
2022-11-26T19:06:15.710Z,26.30
2022-11-26T19:08:44.117Z,24.25
2022-11-26T19:11:13.073Z,27.02
2022-11-26T19:13:41.513Z,23.30
2022-11-26T19:16:15.810Z,23.80
2022-11-26T19:18:46.378Z,24.15
2022-11-26T19:21:18.613Z,23.45
2022-11-26T19:23:46.940Z,22.90
2022-11-26T19:26:21.386Z,21.60
2022-11-26T19:28:49.888Z,21.48
2022-11-26T19:31:19.149Z,19.27
2022-11-26T19:33:48.981Z,20.80
2022-11-26T19:36:27.651Z,20.60
2022-11-26T19:38:56.166Z,19.30
2022-11-26T19:41:25.929Z,18.00
2022-11-26T19:43:54.605Z,18.27
2022-11-26T19:46:23.911Z,17.75
2022-11-26T19:48:53.827Z,18.13
2022-11-26T19:51:22.694Z,16.85
2022-11-26T19:53:51.937Z,16.65
2022-11-26T19:56:21.068Z,16.10
2022-11-26T19:58:49.558Z,15.30
2022-11-26T20:01:18.359Z,15.93
2022-11-26T20:03:46.954Z,14.30
2022-11-26T20:06:26.495Z,14.82
2022-11-26T20:08:54.848Z,13.98
2022-11-26T20:11:23.148Z,14.70
2022-11-26T20:13:51.719Z,14.05
2022-11-26T20:16:21.059Z,12.13
2022-11-26T20:18:49.641Z,12.23
2022-11-26T20:21:20.715Z,12.27
2022-11-26T20:23:49.300Z,11.65
2022-11-26T20:26:18.623Z,12.00
2022-11-26T20:28:46.992Z,11.50
2022-11-26T20:31:18.272Z,10.77
2022-11-26T20:33:53.135Z,10.55
2022-11-26T20:36:24.844Z,10.20
2022-11-26T20:38:53.490Z,9.93
2022-11-26T20:41:21.852Z,9.82
2022-11-26T20:43:53.748Z,9.73
2022-11-26T20:46:26.721Z,9.73
2022-11-26T20:48:58.136Z,8.80
2022-11-26T20:51:28.176Z,8.93
2022-11-26T20:53:58.864Z,8.52
2022-11-26T20:56:27.322Z,9.70
2022-11-26T20:58:55.658Z,7.97
2022-11-26T21:01:25.076Z,7.82
2022-11-26T21:03:56.787Z,8.20
2022-11-26T21:06:30.361Z,8.80
2022-11-26T21:09:03.021Z,7.78
2022-11-26T21:11:34.336Z,8.10
2022-11-26T21:14:04.554Z,6.97
2022-11-26T21:16:33.090Z,7.13
2022-11-26T21:19:01.508Z,6.78
2022-11-26T21:21:31.204Z,6.53
2022-11-26T21:24:04.627Z,6.18
2022-11-26T21:26:33.027Z,6.07
2022-11-26T21:29:04.156Z,6.28
2022-11-26T21:31:35.658Z,5.65
2022-11-26T21:34:05.055Z,5.80
2022-11-26T21:36:35.884Z,5.75
2022-11-26T21:39:06.478Z,5.85
2022-11-26T21:41:34.779Z,6.05
2022-11-26T21:44:03.861Z,5.82
2022-11-26T21:46:38.879Z,5.90
2022-11-26T21:49:09.331Z,5.60
2022-11-26T21:51:39.001Z,5.47
2022-11-26T21:54:07.524Z,5.07
2022-11-26T21:56:35.825Z,4.68
2022-11-26T21:59:10.338Z,4.90
2022-11-26T22:01:39.050Z,4.93
2022-11-26T22:04:08.517Z,4.93
2022-11-26T22:06:38.560Z,4.90
2022-11-26T22:09:07.319Z,4.85
2022-11-26T22:11:39.744Z,5.25
2022-11-26T22:14:11.221Z,4.75
2022-11-26T22:16:39.628Z,4.50
2022-11-26T22:19:08.097Z,4.20
2022-11-26T22:21:39.445Z,4.68
2022-11-26T22:24:08.651Z,4.10
2022-11-26T22:26:37.066Z,4.47
2022-11-26T22:29:05.491Z,4.72
2022-11-26T22:31:37.666Z,4.45
2022-11-26T22:34:08.480Z,3.92
2022-11-26T22:36:41.259Z,4.60
2022-11-26T22:39:14.352Z,4.10
2022-11-26T22:41:45.607Z,3.33
2022-11-26T22:44:14.087Z,3.45
2022-11-26T22:46:42.439Z,4.30
2022-11-26T22:49:12.095Z,3.20
2022-11-26T22:51:44.236Z,3.00
2022-11-26T22:54:13.878Z,3.40
2022-11-26T22:56:42.257Z,3.45
2022-11-26T22:59:15.125Z,3.15
2022-11-26T23:01:43.460Z,3.10
2022-11-26T23:04:20.014Z,3.25
2022-11-26T23:06:49.741Z,3.17
2022-11-26T23:09:18.018Z,2.88
2022-11-26T23:11:48.940Z,2.70
2022-11-26T23:14:17.247Z,2.90
2022-11-26T23:16:48.246Z,3.00
2022-11-26T23:19:16.946Z,3.13
2022-11-26T23:21:46.707Z,2.40
2022-11-26T23:24:16.587Z,3.47
2022-11-26T23:26:47.744Z,2.72
2022-11-26T23:29:16.017Z,2.70
2022-11-26T23:31:46.333Z,2.70
2022-11-26T23:34:16.428Z,2.58
2022-11-26T23:36:44.758Z,2.47
2022-11-26T23:39:13.387Z,2.80
2022-11-26T23:44:28.017Z,2.47
2022-11-26T23:46:56.311Z,2.67
2022-11-26T23:49:27.044Z,2.22
2022-11-26T23:51:55.325Z,2.67
2022-11-26T23:54:27.712Z,2.22
2022-11-26T23:56:59.610Z,2.67
2022-11-26T23:59:29.977Z,2.38
